Observation data for Goodlett on 07/12/2020      Previous  Date  Next       Current Mesonet Observations  Soil Data  Daily Summary Page  Observations in Plain Language
KGDS 120500Z 18007KT 33/17 A2989 RMK A01 T03330165  RH  038%=      5-min Rain = 0
KGDS 120505Z 18007KT 33/17 A299 RMK A01 T03320166  RH  039%=      5-min Rain = 0
KGDS 120510Z 18009KT 33/17 A2989 RMK A01 T03310166  RH  039%=      5-min Rain = 0
KGDS 120515Z 18010KT 33/17 A2988 RMK A01 T03280167  RH  040%=      5-min Rain = 0
KGDS 120520Z 18009KT 33/17 A2988 RMK A01 T03260168  RH  041%=      5-min Rain = 0
KGDS 120525Z 17008KT 33/17 A2989 RMK A01 T03260170  RH  041%=      5-min Rain = 0
KGDS 120530Z 17009KT 33/17 A2989 RMK A01 T03260172  RH  042%=      5-min Rain = 0
KGDS 120535Z 17009KT 33/17 A2989 RMK A01 T03280173  RH  042%=      5-min Rain = 0
KGDS 120540Z 17011KT 33/17 A2989 RMK A01 T03300174  RH  041%=      5-min Rain = 0
KGDS 120545Z 17012KT 33/17 A2989 RMK A01 T03320174  RH  041%=      5-min Rain = 0
KGDS 120550Z 17012KT 33/17 A2989 RMK A01 T03320174  RH  041%=      5-min Rain = 0
KGDS 120555Z 17012G17KT 33/17 A2989 RMK A01 T03330174  RH  041%=      5-min Rain = 0
KGDS 120600Z 17013KT 33/17 A2989 RMK A01 T03330174  RH  041%=      5-min Rain = 0
KGDS 120605Z 18012KT 33/18 A2989 RMK A01 T03310175  RH  041%=      5-min Rain = 0
KGDS 120610Z 18013KT 33/18 A2989 RMK A01 T03310175  RH  041%=      5-min Rain = 0
KGDS 120615Z 18011KT 33/18 A2989 RMK A01 T03310175  RH  041%=      5-min Rain = 0
KGDS 120620Z 19010KT 33/18 A2989 RMK A01 T03310175  RH  042%=      5-min Rain = 0
KGDS 120625Z 20009KT 33/18 A2991 RMK A01 T03300176  RH  042%=      5-min Rain = 0
KGDS 120630Z 21007KT 33/18 A2991 RMK A01 T03290176  RH  042%=      5-min Rain = 0
KGDS 120635Z 22006KT 33/18 A2992 RMK A01 T03270176  RH  043%=      5-min Rain = 0
KGDS 120640Z 22005KT 33/18 A2992 RMK A01 T03260176  RH  043%=      5-min Rain = 0
KGDS 120645Z 22004KT 32/18 A2993 RMK A01 T03240176  RH  044%=      5-min Rain = 0
KGDS 120650Z 22002KT 32/18 A2993 RMK A01 T03230176  RH  044%=      5-min Rain = 0
KGDS 120655Z 02001KT 32/18 A2994 RMK A01 T03230177  RH  044%=      5-min Rain = 0
KGDS 120700Z 00005KT 32/18 A2994 RMK A01 T03170178  RH  046%=      5-min Rain = 0
KGDS 120705Z 36009KT 32/18 A2995 RMK A01 T03150178  RH  046%=      5-min Rain = 0
KGDS 120710Z 00012KT 32/18 A2996 RMK A01 T03160178  RH  046%=      5-min Rain = 0
KGDS 120715Z 35012KT 32/18 A2996 RMK A01 T03160177  RH  046%=      5-min Rain = 0
KGDS 120720Z 35011G18KT 32/18 A2996 RMK A01 T03190179  RH  046%=      5-min Rain = 0
KGDS 120725Z 01009KT 30/20 A2996 RMK A01 T03030197  RH  056%=      5-min Rain = 0.01
KGDS 120730Z 02007KT 30/20 A2996 RMK A01 T02960199  RH  059%=      5-min Rain = 0
KGDS 120735Z 06005KT 30/20 A2995 RMK A01 T02970196  RH  058%=      5-min Rain = 0
KGDS 120740Z 09006KT 29/20 A2995 RMK A01 T02940203  RH  062%=      5-min Rain = 0
KGDS 120745Z 09006KT 29/20 A2995 RMK A01 T02930199  RH  060%=      5-min Rain = 0
KGDS 120750Z 10005KT 30/20 A2994 RMK A01 T02970197  RH  058%=      5-min Rain = 0
KGDS 120755Z 09007KT 30/20 A2994 RMK A01 T02950199  RH  060%=      5-min Rain = 0
KGDS 120800Z 09008KT 29/20 A2994 RMK A01 T02930200  RH  060%=      5-min Rain = 0
KGDS 120805Z 09009KT 30/20 A2994 RMK A01 T02970198  RH  058%=      5-min Rain = 0
KGDS 120810Z 10010KT 29/20 A2994 RMK A01 T02920199  RH  061%=      5-min Rain = 0
KGDS 120815Z 10010KT 29/20 A2994 RMK A01 T02890200  RH  062%=      5-min Rain = 0
KGDS 120820Z 09011KT 29/19 A2994 RMK A01 T02920193  RH  058%=      5-min Rain = 0
KGDS 120825Z 09010KT 29/19 A2995 RMK A01 T02920193  RH  059%=      5-min Rain = 0
KGDS 120830Z 09011KT 29/20 A2995 RMK A01 T02900195  RH  060%=      5-min Rain = 0
KGDS 120835Z 10012KT 29/20 A2995 RMK A01 T02900197  RH  060%=      5-min Rain = 0
KGDS 120840Z 10014KT 29/20 A2995 RMK A01 T02920201  RH  061%=      5-min Rain = 0
KGDS 120845Z 10016KT 29/20 A2994 RMK A01 T02900204  RH  064%=      5-min Rain = 0
KGDS 120850Z 11012G17KT 29/21 A2994 RMK A01 T02860207  RH  066%=      5-min Rain = 0
KGDS 120855Z 11013KT 28/21 A2994 RMK A01 T02840208  RH  068%=      5-min Rain = 0
KGDS 120900Z 11014G19KT 28/21 A2994 RMK A01 T02830209  RH  068%=      5-min Rain = 0
KGDS 120905Z 11013KT 28/21 A2994 RMK A01 T02820209  RH  069%=      5-min Rain = 0
KGDS 120910Z 11014G19KT 28/21 A2994 RMK A01 T02810209  RH  069%=      5-min Rain = 0
KGDS 120915Z 12017KT 28/21 A2993 RMK A01 T02820208  RH  068%=      5-min Rain = 0
KGDS 120920Z 12019G24KT 28/21 A2992 RMK A01 T02830207  RH  068%=      5-min Rain = 0
KGDS 120925Z 12020G26KT 28/21 A2991 RMK A01 T02830207  RH  067%=      5-min Rain = 0
KGDS 120930Z 12022G28KT 28/21 A2991 RMK A01 T02820205  RH  067%=      5-min Rain = 0
KGDS 120935Z 12026G32KT 28/20 A2989 RMK A01 T02820202  RH  066%=      5-min Rain = 0
KGDS 120940Z 13024G31KT 28/20 A2988 RMK A01 T02810200  RH  065%=      5-min Rain = 0
KGDS 120945Z 12020G28KT 28/20 A299 RMK A01 T02800198  RH  064%=      5-min Rain = 0
KGDS 120950Z 12022G32KT 28/20 A2992 RMK A01 T02800199  RH  065%=      5-min Rain = 0
KGDS 120955Z 11025G34KT 28/20 A2992 RMK A01 T02760203  RH  068%=      5-min Rain = 0
KGDS 121000Z 12026G34KT 27/21 A2991 RMK A01 T02710205  RH  071%=      5-min Rain = 0
KGDS 121005Z 12026G34KT 27/21 A299 RMK A01 T02670206  RH  073%=      5-min Rain = 0
KGDS 121010Z 12034G41KT 26/20 A299 RMK A01 T02630200  RH  073%=      5-min Rain = 0
KGDS 121015Z 13031G39KT 26/20 A299 RMK A01 T02570200  RH  075%=      5-min Rain = 0
KGDS 121020Z 13030G41KT 25/20 A299 RMK A01 T02530198  RH  076%=      5-min Rain = 0
KGDS 121025Z 14028G37KT 25/20 A2991 RMK A01 T02500197  RH  077%=      5-min Rain = 0
KGDS 121030Z 14027G39KT 25/20 A2991 RMK A01 T02500196  RH  076%=      5-min Rain = 0
KGDS 121035Z 14025G32KT 25/19 A2992 RMK A01 T02490194  RH  076%=      5-min Rain = 0
KGDS 121040Z 14024G34KT 25/19 A2992 RMK A01 T02490193  RH  075%=      5-min Rain = 0
KGDS 121045Z 14024G32KT 25/19 A2993 RMK A01 T02490192  RH  075%=      5-min Rain = 0
KGDS 121050Z 14022G29KT 25/19 A2993 RMK A01 T02500190  RH  074%=      5-min Rain = 0
KGDS 121055Z 14022G28KT 25/19 A2994 RMK A01 T02500189  RH  073%=      5-min Rain = 0
KGDS 121100Z 14021G31KT 25/19 A2995 RMK A01 T02500187  RH  072%=      5-min Rain = 0
KGDS 121105Z 13020G30KT 25/19 A2996 RMK A01 T02500185  RH  071%=      5-min Rain = 0
KGDS 121110Z 13019G25KT 25/18 A2997 RMK A01 T02500184  RH  071%=      5-min Rain = 0
KGDS 121115Z 12016G23KT 25/18 A2998 RMK A01 T02500184  RH  071%=      5-min Rain = 0
KGDS 121120Z 11014G21KT 25/18 A2999 RMK A01 T02490183  RH  071%=      5-min Rain = 0
KGDS 121125Z 11015G22KT 25/18 A2999 RMK A01 T02500183  RH  070%=      5-min Rain = 0
KGDS 121130Z 11015G25KT 25/18 A2999 RMK A01 T02510182  RH  069%=      5-min Rain = 0
KGDS 121135Z 12015G21KT 25/18 A2999 RMK A01 T02510181  RH  069%=      5-min Rain = 0
KGDS 121140Z 13017G25KT 25/18 A30 RMK A01 T02510181  RH  069%=      5-min Rain = 0
KGDS 121145Z 13017KT 25/18 A30 RMK A01 T02510181  RH  069%=      5-min Rain = 0
KGDS 121150Z 12017KT 25/18 A2999 RMK A01 T02490181  RH  070%=      5-min Rain = 0
KGDS 121155Z 13014G19KT 25/18 A30 RMK A01 T02480182  RH  070%=      5-min Rain = 0
KGDS 121200Z 13013G18KT 25/18 A30 RMK A01 T02480181  RH  070%=      5-min Rain = 0
KGDS 121205Z 13014G19KT 25/18 A30 RMK A01 T02480181  RH  070%=      5-min Rain = 0
KGDS 121210Z 13014G20KT 25/18 A30 RMK A01 T02490180  RH  069%=      5-min Rain = 0
KGDS 121215Z 14012G18KT 25/18 A30 RMK A01 T02480180  RH  069%=      5-min Rain = 0
KGDS 121220Z 13012KT 25/18 A3001 RMK A01 T02490180  RH  069%=      5-min Rain = 0
KGDS 121225Z 13012KT 25/18 A3001 RMK A01 T02480179  RH  069%=      5-min Rain = 0
KGDS 121230Z 14011G17KT 25/18 A3001 RMK A01 T02490179  RH  069%=      5-min Rain = 0
KGDS 121235Z 14012KT 25/18 A30 RMK A01 T02490178  RH  068%=      5-min Rain = 0
KGDS 121240Z 14011KT 25/18 A3001 RMK A01 T02510177  RH  067%=      5-min Rain = 0
KGDS 121245Z 15009G14KT 25/18 A3002 RMK A01 T02530177  RH  066%=      5-min Rain = 0
KGDS 121250Z 15009KT 26/18 A3002 RMK A01 T02550177  RH  065%=      5-min Rain = 0
KGDS 121255Z 15009KT 26/18 A3002 RMK A01 T02570177  RH  064%=      5-min Rain = 0
KGDS 121300Z 15008KT 26/18 A3002 RMK A01 T02590177  RH  064%=      5-min Rain = 0
KGDS 121305Z 14007KT 26/18 A3002 RMK A01 T02620178  RH  063%=      5-min Rain = 0
KGDS 121310Z 14008KT 27/18 A3002 RMK A01 T02650177  RH  062%=      5-min Rain = 0
KGDS 121315Z 14008KT 27/18 A3002 RMK A01 T02680177  RH  061%=      5-min Rain = 0
KGDS 121320Z 14009KT 27/18 A3002 RMK A01 T02680176  RH  060%=      5-min Rain = 0
KGDS 121325Z 15009KT 27/18 A3001 RMK A01 T02710176  RH  059%=      5-min Rain = 0
KGDS 121330Z 15009KT 27/18 A3002 RMK A01 T02740176  RH  058%=      5-min Rain = 0
KGDS 121335Z 16008KT 28/18 A3002 RMK A01 T02770176  RH  057%=      5-min Rain = 0
KGDS 121340Z 14009KT 28/18 A3002 RMK A01 T02790175  RH  056%=      5-min Rain = 0
KGDS 121345Z 15009KT 28/17 A3002 RMK A01 T02800174  RH  055%=      5-min Rain = 0
KGDS 121350Z 16012G17KT 29/18 A3002 RMK A01 T02860175  RH  054%=      5-min Rain = 0
KGDS 121355Z 16015G20KT 29/17 A3001 RMK A01 T02870173  RH  053%=      5-min Rain = 0
KGDS 121400Z 16017G22KT 29/17 A3001 RMK A01 T02890173  RH  052%=      5-min Rain = 0
KGDS 121405Z 16017KT 29/17 A30 RMK A01 T02850171  RH  053%=      5-min Rain = 0
KGDS 121410Z 16017KT 29/17 A30 RMK A01 T02860171  RH  052%=      5-min Rain = 0
KGDS 121415Z 16015G21KT 29/17 A30 RMK A01 T02860171  RH  052%=      5-min Rain = 0
KGDS 121420Z 16018KT 29/17 A30 RMK A01 T02880171  RH  052%=      5-min Rain = 0
KGDS 121425Z 16017KT 29/17 A30 RMK A01 T02880171  RH  052%=      5-min Rain = 0
KGDS 121430Z 17017KT 29/17 A30 RMK A01 T02890171  RH  051%=      5-min Rain = 0
KGDS 121435Z 16017KT 29/17 A30 RMK A01 T02900171  RH  051%=      5-min Rain = 0
KGDS 121440Z 16015G20KT 29/17 A3001 RMK A01 T02920171  RH  051%=      5-min Rain = 0
KGDS 121445Z 17012G19KT 30/17 A3001 RMK A01 T02960173  RH  050%=      5-min Rain = 0
KGDS 121450Z 18014G19KT 31/17 A3001 RMK A01 T03050172  RH  047%=      5-min Rain = 0
KGDS 121455Z 18015KT 31/17 A3002 RMK A01 T03060172  RH  047%=      5-min Rain = 0
KGDS 121500Z 19015KT 31/17 A3002 RMK A01 T03100171  RH  046%=      5-min Rain = 0
KGDS 121505Z 19016G22KT 31/17 A3001 RMK A01 T03060169  RH  046%=      5-min Rain = 0
KGDS 121510Z 19014KT 30/17 A30 RMK A01 T03040170  RH  047%=      5-min Rain = 0
KGDS 121515Z 19017G22KT 30/17 A30 RMK A01 T03040169  RH  047%=      5-min Rain = 0
KGDS 121520Z 18017KT 31/17 A2999 RMK A01 T03090170  RH  045%=      5-min Rain = 0
KGDS 121525Z 18016G21KT 31/17 A2999 RMK A01 T03090169  RH  045%=      5-min Rain = 0
KGDS 121530Z 19015G20KT 31/17 A2999 RMK A01 T03060169  RH  046%=      5-min Rain = 0
KGDS 121535Z 18013KT 31/17 A30 RMK A01 T03050169  RH  046%=      5-min Rain = 0
KGDS 121540Z 20010KT 31/17 A3001 RMK A01 T03060168  RH  046%=      5-min Rain = 0
KGDS 121545Z 21009KT 31/17 A3001 RMK A01 T03050168  RH  046%=      5-min Rain = 0
KGDS 121550Z 21009KT 31/17 A3001 RMK A01 T03060169  RH  046%=      5-min Rain = 0
KGDS 121555Z 21011KT 31/17 A3001 RMK A01 T03070169  RH  046%=      5-min Rain = 0
KGDS 121600Z 22010KT 31/17 A3001 RMK A01 T03070169  RH  046%=      5-min Rain = 0
KGDS 121605Z 22010KT 31/17 A3001 RMK A01 T03110169  RH  045%=      5-min Rain = 0
KGDS 121610Z 20010KT 31/17 A3001 RMK A01 T03130171  RH  045%=      5-min Rain = 0
KGDS 121615Z 20012KT 32/17 A30 RMK A01 T03180171  RH  043%=      5-min Rain = 0
KGDS 121620Z 19011KT 32/17 A30 RMK A01 T03200171  RH  043%=      5-min Rain = 0
KGDS 121625Z 19011KT 32/17 A30 RMK A01 T03230171  RH  042%=      5-min Rain = 0
KGDS 121630Z 19011G17KT 32/17 A2999 RMK A01 T03240172  RH  042%=      5-min Rain = 0
KGDS 121635Z 19012KT 33/17 A2998 RMK A01 T03250172  RH  042%=      5-min Rain = 0
KGDS 121640Z 19015G20KT 33/17 A2998 RMK A01 T03320173  RH  041%=      5-min Rain = 0
KGDS 121645Z 19015KT 34/17 A2997 RMK A01 T03370171  RH  039%=      5-min Rain = 0
KGDS 121650Z 20012KT 34/17 A2997 RMK A01 T03360172  RH  040%=      5-min Rain = 0
KGDS 121655Z 21012G17KT 34/17 A2998 RMK A01 T03390171  RH  039%=      5-min Rain = 0
KGDS 121700Z 20012KT 34/17 A2998 RMK A01 T03400171  RH  038%=      5-min Rain = 0
KGDS 121705Z 20011KT 33/17 A2998 RMK A01 T03330170  RH  040%=      5-min Rain = 0
KGDS 121710Z 19009KT 33/17 A2998 RMK A01 T03330170  RH  040%=      5-min Rain = 0
KGDS 121715Z 18008KT 34/17 A2997 RMK A01 T03360172  RH  040%=      5-min Rain = 0
KGDS 121720Z 19010KT 34/17 A2997 RMK A01 T03380172  RH  039%=      5-min Rain = 0
KGDS 121725Z 19010KT 34/17 A2996 RMK A01 T03380171  RH  039%=      5-min Rain = 0
KGDS 121730Z 19010G16KT 34/17 A2996 RMK A01 T03380171  RH  039%=      5-min Rain = 0
KGDS 121735Z 19010KT 34/17 A2996 RMK A01 T03380170  RH  038%=      5-min Rain = 0
KGDS 121740Z 21009KT 34/17 A2996 RMK A01 T03400171  RH  039%=      5-min Rain = 0
KGDS 121745Z 20009G14KT 34/17 A2996 RMK A01 T03370173  RH  040%=      5-min Rain = 0
KGDS 121750Z 18007KT 34/18 A2996 RMK A01 T03410176  RH  040%=      5-min Rain = 0
KGDS 121755Z 19010G15KT 34/17 A2996 RMK A01 T03420171  RH  038%=      5-min Rain = 0
KGDS 121800Z 20011KT 34/17 A2995 RMK A01 T03440173  RH  038%=      5-min Rain = 0
KGDS 121805Z 19011KT 35/17 A2995 RMK A01 T03460173  RH  038%=      5-min Rain = 0
KGDS 121810Z 20013G18KT 35/18 A2994 RMK A01 T03480175  RH  038%=      5-min Rain = 0
KGDS 121815Z 21012G18KT 35/18 A2994 RMK A01 T03460175  RH  038%=      5-min Rain = 0
KGDS 121820Z 20012KT 35/18 A2994 RMK A01 T03450175  RH  038%=      5-min Rain = 0
KGDS 121825Z 20012G17KT 35/18 A2994 RMK A01 T03470177  RH  038%=      5-min Rain = 0
KGDS 121830Z 19010G15KT 35/18 A2994 RMK A01 T03460178  RH  039%=      5-min Rain = 0
KGDS 121835Z 20008G16KT 34/18 A2994 RMK A01 T03440178  RH  039%=      5-min Rain = 0
KGDS 121840Z 20008G13KT 35/18 A2994 RMK A01 T03450177  RH  039%=      5-min Rain = 0
KGDS 121845Z 20008G14KT 35/18 A2993 RMK A01 T03460179  RH  039%=      5-min Rain = 0
KGDS 121850Z 20010KT 35/18 A2993 RMK A01 T03530179  RH  038%=      5-min Rain = 0
KGDS 121855Z 21009G16KT 35/18 A2992 RMK A01 T03510179  RH  038%=      5-min Rain = 0
KGDS 121900Z 20008KT 36/18 A2992 RMK A01 T03550181  RH  038%=      5-min Rain = 0
KGDS 121905Z 20008KT 35/18 A2992 RMK A01 T03530179  RH  038%=      5-min Rain = 0
KGDS 121910Z 18008G13KT 36/18 A2991 RMK A01 T03580181  RH  037%=      5-min Rain = 0
KGDS 121915Z 21009KT 36/18 A2991 RMK A01 T03610179  RH  036%=      5-min Rain = 0
KGDS 121920Z 21008KT 36/18 A2991 RMK A01 T03620179  RH  036%=      5-min Rain = 0
KGDS 121925Z 19008G13KT 37/18 A2991 RMK A01 T03660183  RH  036%=      5-min Rain = 0
KGDS 121930Z 22009G14KT 37/18 A2991 RMK A01 T03680180  RH  035%=      5-min Rain = 0
KGDS 121935Z 24008KT 37/18 A2991 RMK A01 T03680180  RH  035%=      5-min Rain = 0
KGDS 121940Z 23005KT 37/18 A2991 RMK A01 T03690180  RH  035%=      5-min Rain = 0
KGDS 121945Z 21002G7KT 37/18 A299 RMK A01 T03670178  RH  035%=      5-min Rain = 0
KGDS 121950Z 17006KT 37/18 A299 RMK A01 T03710177  RH  034%=      5-min Rain = 0
KGDS 121955Z 18005KT 37/18 A2989 RMK A01 T03710178  RH  034%=      5-min Rain = 0
KGDS 122000Z 19005KT 38/18 A2989 RMK A01 T03760179  RH  033%=      5-min Rain = 0
KGDS 122005Z 18008KT 38/18 A2989 RMK A01 T03780178  RH  033%=      5-min Rain = 0
KGDS 122010Z 18009KT 38/17 A2988 RMK A01 T03820174  RH  031%=      5-min Rain = 0
KGDS 122015Z 18007KT 38/17 A2988 RMK A01 T03820174  RH  031%=      5-min Rain = 0
KGDS 122020Z 18008G14KT 39/17 A2988 RMK A01 T03850172  RH  030%=      5-min Rain = 0
KGDS 122025Z 19009KT 39/17 A2988 RMK A01 T03870167  RH  029%=      5-min Rain = 0
KGDS 122030Z 20009G14KT 39/17 A2987 RMK A01 T03910171  RH  029%=      5-min Rain = 0
KGDS 122035Z 17007KT 39/17 A2987 RMK A01 T03920170  RH  029%=      5-min Rain = 0
KGDS 122040Z 16006KT 39/17 A2987 RMK A01 T03910169  RH  029%=      5-min Rain = 0
KGDS 122045Z 17006G13KT 39/17 A2987 RMK A01 T03930167  RH  028%=      5-min Rain = 0
KGDS 122050Z 17005G11KT 40/17 A2987 RMK A01 T03950167  RH  028%=      5-min Rain = 0
KGDS 122055Z 15009KT 40/17 A2986 RMK A01 T04000166  RH  027%=      5-min Rain = 0
KGDS 122100Z 18006KT 40/17 A2986 RMK A01 T03970166  RH  027%=      5-min Rain = 0
KGDS 122105Z 16010KT 40/16 A2986 RMK A01 T04010164  RH  026%=      5-min Rain = 0
KGDS 122110Z 17006G11KT 40/16 A2985 RMK A01 T04030159  RH  025%=      5-min Rain = 0
KGDS 122115Z 15009G14KT 40/16 A2985 RMK A01 T04030158  RH  025%=      5-min Rain = 0
KGDS 122120Z 13007G13KT 40/16 A2985 RMK A01 T04030157  RH  025%=      5-min Rain = 0
KGDS 122125Z 15010KT 41/16 A2985 RMK A01 T04070157  RH  024%=      5-min Rain = 0
KGDS 122130Z 15009KT 41/15 A2985 RMK A01 T04060153  RH  024%=      5-min Rain = 0
KGDS 122135Z 13009G14KT 41/16 A2984 RMK A01 T04070157  RH  024%=      5-min Rain = 0
KGDS 122140Z 12008G13KT 41/16 A2984 RMK A01 T04070156  RH  024%=      5-min Rain = 0
KGDS 122145Z 13010KT 41/15 A2984 RMK A01 T04090150  RH  023%=      5-min Rain = 0
KGDS 122150Z 16007G13KT 41/15 A2984 RMK A01 T04140145  RH  022%=      5-min Rain = 0
KGDS 122155Z 15008KT 42/14 A2984 RMK A01 T04150140  RH  021%=      5-min Rain = 0
KGDS 122200Z 12008G13KT 41/15 A2984 RMK A01 T04110145  RH  022%=      5-min Rain = 0
KGDS 122205Z 13010G15KT 41/15 A2984 RMK A01 T04090154  RH  024%=      5-min Rain = 0
KGDS 122210Z 13009G14KT 41/15 A2984 RMK A01 T04120151  RH  023%=      5-min Rain = 0
KGDS 122215Z 13008G13KT 41/15 A2983 RMK A01 T04100149  RH  023%=      5-min Rain = 0
KGDS 122220Z 11011KT 41/15 A2983 RMK A01 T04140148  RH  022%=      5-min Rain = 0
KGDS 122225Z 12011KT 41/15 A2983 RMK A01 T04110147  RH  022%=      5-min Rain = 0
KGDS 122230Z 13010KT 41/14 A2983 RMK A01 T04120140  RH  021%=      5-min Rain = 0
KGDS 122235Z 10011KT 41/13 A2983 RMK A01 T04120134  RH  020%=      5-min Rain = 0
KGDS 122240Z 12008G15KT 41/14 A2983 RMK A01 T04090135  RH  021%=      5-min Rain = 0
KGDS 122245Z 12009G14KT 41/13 A2983 RMK A01 T04120132  RH  020%=      5-min Rain = 0
KGDS 122250Z 11011KT 41/13 A2983 RMK A01 T04100125  RH  019%=      5-min Rain = 0
KGDS 122255Z 10009G14KT 41/13 A2983 RMK A01 T04090131  RH  020%=      5-min Rain = 0
KGDS 122300Z 15010KT 41/13 A2983 RMK A01 T04110127  RH  019%=      5-min Rain = 0
KGDS 122305Z 12009G14KT 41/13 A2983 RMK A01 T04100130  RH  020%=      5-min Rain = 0
KGDS 122310Z 13010KT 41/13 A2982 RMK A01 T04090132  RH  020%=      5-min Rain = 0
KGDS 122315Z 11011KT 41/13 A2982 RMK A01 T04100132  RH  020%=      5-min Rain = 0
KGDS 122320Z 10013KT 41/13 A2982 RMK A01 T04080131  RH  020%=      5-min Rain = 0
KGDS 122325Z 10011KT 41/13 A2982 RMK A01 T04080132  RH  020%=      5-min Rain = 0
KGDS 122330Z 11012KT 41/13 A2982 RMK A01 T04080129  RH  020%=      5-min Rain = 0
KGDS 122335Z 10011KT 41/12 A2982 RMK A01 T04080123  RH  019%=      5-min Rain = 0
KGDS 122340Z 10011KT 41/13 A2982 RMK A01 T04060126  RH  020%=      5-min Rain = 0
KGDS 122345Z 09012G17KT 41/13 A2982 RMK A01 T04050130  RH  021%=      5-min Rain = 0
KGDS 122350Z 10013KT 40/14 A2981 RMK A01 T04040139  RH  022%=      5-min Rain = 0
KGDS 122355Z 11012KT 40/14 A2981 RMK A01 T04030135  RH  021%=      5-min Rain = 0
KGDS 130000Z 12012KT 40/13 A2981 RMK A01 T04030133  RH  021%=      5-min Rain = 0
KGDS 130005Z 11013KT 40/13 A2981 RMK A01 T04010126  RH  020%=      5-min Rain = 0
KGDS 130010Z 11014KT 40/13 A2981 RMK A01 T04010131  RH  021%=      5-min Rain = 0
KGDS 130015Z 12014KT 40/13 A2981 RMK A01 T04000126  RH  021%=      5-min Rain = 0
KGDS 130020Z 12012KT 40/13 A2981 RMK A01 T04000134  RH  022%=      5-min Rain = 0
KGDS 130025Z 11015KT 40/13 A2981 RMK A01 T03980133  RH  022%=      5-min Rain = 0
KGDS 130030Z 11014KT 40/13 A2981 RMK A01 T03970132  RH  022%=      5-min Rain = 0
KGDS 130035Z 12013G18KT 40/14 A2981 RMK A01 T03960135  RH  022%=      5-min Rain = 0
KGDS 130040Z 11014KT 40/13 A2981 RMK A01 T03960131  RH  022%=      5-min Rain = 0
KGDS 130045Z 11016G22KT 39/14 A2981 RMK A01 T03920139  RH  024%=      5-min Rain = 0
KGDS 130050Z 11018G25KT 38/17 A2981 RMK A01 T03820166  RH  030%=      5-min Rain = 0
KGDS 130055Z 10021G27KT 37/19 A2982 RMK A01 T03700188  RH  037%=      5-min Rain = 0
KGDS 130100Z 10020G26KT 36/19 A2981 RMK A01 T03610194  RH  040%=      5-min Rain = 0
KGDS 130105Z 10020G27KT 36/20 A2981 RMK A01 T03570197  RH  042%=      5-min Rain = 0
KGDS 130110Z 10021KT 35/20 A2981 RMK A01 T03520198  RH  043%=      5-min Rain = 0
KGDS 130115Z 10020G25KT 35/20 A2981 RMK A01 T03480200  RH  045%=      5-min Rain = 0
KGDS 130120Z 10020G26KT 34/20 A2981 RMK A01 T03440200  RH  046%=      5-min Rain = 0
KGDS 130125Z 10021G28KT 34/20 A2981 RMK A01 T03390201  RH  047%=      5-min Rain = 0
KGDS 130130Z 10022G29KT 34/20 A2981 RMK A01 T03360204  RH  049%=      5-min Rain = 0
KGDS 130135Z 10020G25KT 33/21 A2981 RMK A01 T03330206  RH  050%=      5-min Rain = 0
KGDS 130140Z 10018G23KT 33/21 A2981 RMK A01 T03320207  RH  051%=      5-min Rain = 0
KGDS 130145Z 11019G25KT 33/21 A2981 RMK A01 T03300209  RH  052%=      5-min Rain = 0
KGDS 130150Z 11017G24KT 33/21 A2981 RMK A01 T03280209  RH  053%=      5-min Rain = 0
KGDS 130155Z 11017G22KT 33/21 A2981 RMK A01 T03260210  RH  054%=      5-min Rain = 0
KGDS 130200Z 11018G24KT 32/21 A2981 RMK A01 T03240211  RH  054%=      5-min Rain = 0
KGDS 130205Z 11016G21KT 32/21 A2981 RMK A01 T03220211  RH  055%=      5-min Rain = 0
KGDS 130210Z 11017G23KT 32/21 A2981 RMK A01 T03210212  RH  056%=      5-min Rain = 0
KGDS 130215Z 11018KT 32/21 A2981 RMK A01 T03200212  RH  056%=      5-min Rain = 0
KGDS 130220Z 11016KT 32/21 A2982 RMK A01 T03190212  RH  056%=      5-min Rain = 0
KGDS 130225Z 11017KT 32/21 A2982 RMK A01 T03180211  RH  057%=      5-min Rain = 0
KGDS 130230Z 11016G21KT 32/21 A2982 RMK A01 T03170211  RH  057%=      5-min Rain = 0
KGDS 130235Z 11017G22KT 32/21 A2982 RMK A01 T03160210  RH  057%=      5-min Rain = 0
KGDS 130240Z 11017KT 32/21 A2982 RMK A01 T03150211  RH  057%=      5-min Rain = 0
KGDS 130245Z 11017G24KT 31/21 A2982 RMK A01 T03140211  RH  058%=      5-min Rain = 0
KGDS 130250Z 11016G21KT 31/21 A2983 RMK A01 T03120212  RH  059%=      5-min Rain = 0
KGDS 130255Z 11016KT 31/21 A2983 RMK A01 T03110212  RH  059%=      5-min Rain = 0
KGDS 130300Z 11015KT 31/21 A2983 RMK A01 T03100213  RH  060%=      5-min Rain = 0
KGDS 130305Z 11015G21KT 31/21 A2984 RMK A01 T03080213  RH  060%=      5-min Rain = 0
KGDS 130310Z 11017KT 31/21 A2984 RMK A01 T03070213  RH  061%=      5-min Rain = 0
KGDS 130315Z 11016G22KT 31/21 A2983 RMK A01 T03060213  RH  061%=      5-min Rain = 0
KGDS 130320Z 12016G24KT 31/21 A2984 RMK A01 T03060214  RH  062%=      5-min Rain = 0
KGDS 130325Z 12015KT 30/21 A2984 RMK A01 T03040213  RH  062%=      5-min Rain = 0
KGDS 130330Z 12015G20KT 30/21 A2984 RMK A01 T03040213  RH  062%=      5-min Rain = 0
KGDS 130335Z 12014G20KT 30/21 A2985 RMK A01 T03030213  RH  062%=      5-min Rain = 0
KGDS 130340Z 11015G21KT 30/21 A2985 RMK A01 T03030213  RH  062%=      5-min Rain = 0
KGDS 130345Z 11015KT 30/21 A2985 RMK A01 T03020213  RH  063%=      5-min Rain = 0
KGDS 130350Z 12014KT 30/21 A2986 RMK A01 T03020214  RH  063%=      5-min Rain = 0
KGDS 130355Z 12013KT 30/21 A2986 RMK A01 T03010214  RH  063%=      5-min Rain = 0
KGDS 130400Z 12014G20KT 30/21 A2986 RMK A01 T03000214  RH  064%=      5-min Rain = 0
KGDS 130405Z 12014G19KT 30/21 A2986 RMK A01 T02990214  RH  064%=      5-min Rain = 0
KGDS 130410Z 12014G20KT 30/21 A2986 RMK A01 T02990214  RH  064%=      5-min Rain = 0
KGDS 130415Z 12015G20KT 30/21 A2986 RMK A01 T02980214  RH  065%=      5-min Rain = 0
KGDS 130420Z 11016G21KT 30/21 A2986 RMK A01 T02980214  RH  065%=      5-min Rain = 0
KGDS 130425Z 12015G20KT 30/21 A2986 RMK A01 T02970214  RH  065%=      5-min Rain = 0
KGDS 130430Z 11015G21KT 30/21 A2986 RMK A01 T02960214  RH  065%=      5-min Rain = 0
KGDS 130435Z 11014G19KT 30/21 A2987 RMK A01 T02950214  RH  066%=      5-min Rain = 0
KGDS 130440Z 12014KT 29/21 A2987 RMK A01 T02940213  RH  066%=      5-min Rain = 0
KGDS 130445Z 11014G19KT 29/21 A2987 RMK A01 T02940213  RH  066%=      5-min Rain = 0
KGDS 130450Z 12014KT 29/21 A2987 RMK A01 T02940213  RH  066%=      5-min Rain = 0
KGDS 130455Z 12014KT 29/21 A2987 RMK A01 T02930212  RH  066%=      5-min Rain = 0

Page generated in 0.0093 seconds.